sensor_id;sensor_type;location;lat;lon;timestamp;temperature;humidity
66373;SHT30;53168;51.146;17.120;2024-02-28T00:01:02;7.39;82.10
66373;SHT30;53168;51.146;17.120;2024-02-28T00:03:50;7.37;82.12
66373;SHT30;53168;51.146;17.120;2024-02-28T00:06:26;7.35;82.22
66373;SHT30;53168;51.146;17.120;2024-02-28T00:09:02;7.35;82.29
66373;SHT30;53168;51.146;17.120;2024-02-28T00:11:44;7.35;82.28
66373;SHT30;53168;51.146;17.120;2024-02-28T00:14:23;7.35;82.30
66373;SHT30;53168;51.146;17.120;2024-02-28T00:16:59;7.34;82.31
66373;SHT30;53168;51.146;17.120;2024-02-28T00:19:38;7.35;82.38
66373;SHT30;53168;51.146;17.120;2024-02-28T00:22:15;7.36;82.35
66373;SHT30;53168;51.146;17.120;2024-02-28T00:24:55;7.37;82.38
66373;SHT30;53168;51.146;17.120;2024-02-28T00:27:32;7.37;82.41
66373;SHT30;53168;51.146;17.120;2024-02-28T00:30:29;7.34;82.46
66373;SHT30;53168;51.146;17.120;2024-02-28T00:36:21;7.36;82.50
66373;SHT30;53168;51.146;17.120;2024-02-28T00:39:05;7.38;82.51
66373;SHT30;53168;51.146;17.120;2024-02-28T00:41:42;7.38;82.49
66373;SHT30;53168;51.146;17.120;2024-02-28T00:44:35;7.36;82.46
66373;SHT30;53168;51.146;17.120;2024-02-28T00:54:39;7.39;82.57
66373;SHT30;53168;51.146;17.120;2024-02-28T00:57:28;7.38;82.60
66373;SHT30;53168;51.146;17.120;2024-02-28T01:00:23;7.38;82.60
66373;SHT30;53168;51.146;17.120;2024-02-28T01:07:38;7.40;82.70
66373;SHT30;53168;51.146;17.120;2024-02-28T01:10:15;7.40;82.70
66373;SHT30;53168;51.146;17.120;2024-02-28T01:12:54;7.39;82.77
66373;SHT30;53168;51.146;17.120;2024-02-28T01:15:36;7.38;82.86
66373;SHT30;53168;51.146;17.120;2024-02-28T01:18:12;7.36;82.93
66373;SHT30;53168;51.146;17.120;2024-02-28T01:20:48;7.36;83.00
66373;SHT30;53168;51.146;17.120;2024-02-28T01:23:39;7.36;83.01
66373;SHT30;53168;51.146;17.120;2024-02-28T01:26:14;7.36;83.04
66373;SHT30;53168;51.146;17.120;2024-02-28T01:28:52;7.36;83.03
66373;SHT30;53168;51.146;17.120;2024-02-28T01:31:29;7.35;83.10
66373;SHT30;53168;51.146;17.120;2024-02-28T01:34:05;7.35;83.10
66373;SHT30;53168;51.146;17.120;2024-02-28T01:36:41;7.35;83.17
66373;SHT30;53168;51.146;17.120;2024-02-28T01:39:17;7.36;83.20
66373;SHT30;53168;51.146;17.120;2024-02-28T01:41:55;7.40;83.20
66373;SHT30;53168;51.146;17.120;2024-02-28T01:44:55;7.42;83.20
66373;SHT30;53168;51.146;17.120;2024-02-28T01:47:31;7.44;83.16
66373;SHT30;53168;51.146;17.120;2024-02-28T01:50:20;7.45;83.18
66373;SHT30;53168;51.146;17.120;2024-02-28T01:52:59;7.47;83.20
66373;SHT30;53168;51.146;17.120;2024-02-28T01:55:37;7.48;83.20
66373;SHT30;53168;51.146;17.120;2024-02-28T01:58:13;7.48;83.18
66373;SHT30;53168;51.146;17.120;2024-02-28T02:00:50;7.47;83.14
66373;SHT30;53168;51.146;17.120;2024-02-28T02:03:27;7.47;83.19
66373;SHT30;53168;51.146;17.120;2024-02-28T02:06:03;7.47;83.29
66373;SHT30;53168;51.146;17.120;2024-02-28T02:08:39;7.48;83.30
66373;SHT30;53168;51.146;17.120;2024-02-28T02:11:17;7.50;83.31
66373;SHT30;53168;51.146;17.120;2024-02-28T02:13:55;7.50;83.30
66373;SHT30;53168;51.146;17.120;2024-02-28T02:16:30;7.50;83.32
66373;SHT30;53168;51.146;17.120;2024-02-28T02:19:05;7.49;83.35
66373;SHT30;53168;51.146;17.120;2024-02-28T02:21:52;7.47;83.39
66373;SHT30;53168;51.146;17.120;2024-02-28T02:24:31;7.45;83.40
66373;SHT30;53168;51.146;17.120;2024-02-28T02:27:07;7.45;83.50
66373;SHT30;53168;51.146;17.120;2024-02-28T02:29:42;7.46;83.51
66373;SHT30;53168;51.146;17.120;2024-02-28T02:32:17;7.43;83.50
66373;SHT30;53168;51.146;17.120;2024-02-28T02:34:53;7.40;83.58
66373;SHT30;53168;51.146;17.120;2024-02-28T02:37:30;7.37;83.62
66373;SHT30;53168;51.146;17.120;2024-02-28T02:40:07;7.35;83.69
66373;SHT30;53168;51.146;17.120;2024-02-28T02:42:44;7.32;83.70
66373;SHT30;53168;51.146;17.120;2024-02-28T02:45:23;7.34;83.81
66373;SHT30;53168;51.146;17.120;2024-02-28T02:47:59;7.35;83.87
66373;SHT30;53168;51.146;17.120;2024-02-28T02:50:34;7.35;83.89
66373;SHT30;53168;51.146;17.120;2024-02-28T02:53:16;7.35;83.90
66373;SHT30;53168;51.146;17.120;2024-02-28T02:55:51;7.35;83.90
66373;SHT30;53168;51.146;17.120;2024-02-28T02:58:27;7.37;83.94
66373;SHT30;53168;51.146;17.120;2024-02-28T03:01:02;7.36;83.98
66373;SHT30;53168;51.146;17.120;2024-02-28T03:03:38;7.36;83.98
66373;SHT30;53168;51.146;17.120;2024-02-28T03:06:15;7.35;84.00
66373;SHT30;53168;51.146;17.120;2024-02-28T03:08:51;7.36;84.05
66373;SHT30;53168;51.146;17.120;2024-02-28T03:11:26;7.36;84.09
66373;SHT30;53168;51.146;17.120;2024-02-28T03:14:02;7.37;84.10
66373;SHT30;53168;51.146;17.120;2024-02-28T03:16:40;7.39;84.10
66373;SHT30;53168;51.146;17.120;2024-02-28T03:19:17;7.41;84.10
66373;SHT30;53168;51.146;17.120;2024-02-28T03:21:52;7.43;84.10
66373;SHT30;53168;51.146;17.120;2024-02-28T03:26:09;7.45;84.10
66373;SHT30;53168;51.146;17.120;2024-02-28T03:28:43;7.47;84.10
66373;SHT30;53168;51.146;17.120;2024-02-28T03:31:19;7.49;84.10
66373;SHT30;53168;51.146;17.120;2024-02-28T03:33:54;7.48;84.10
66373;SHT30;53168;51.146;17.120;2024-02-28T03:36:30;7.50;84.11
66373;SHT30;53168;51.146;17.120;2024-02-28T03:39:06;7.50;84.15
66373;SHT30;53168;51.146;17.120;2024-02-28T03:41:42;7.51;84.13
66373;SHT30;53168;51.146;17.120;2024-02-28T03:44:17;7.50;84.10
66373;SHT30;53168;51.146;17.120;2024-02-28T03:46:57;7.49;84.11
66373;SHT30;53168;51.146;17.120;2024-02-28T03:49:32;7.48;84.18
66373;SHT30;53168;51.146;17.120;2024-02-28T03:52:09;7.48;84.20
66373;SHT30;53168;51.146;17.120;2024-02-28T03:54:45;7.47;84.20
66373;SHT30;53168;51.146;17.120;2024-02-28T04:09:43;7.48;84.21
66373;SHT30;53168;51.146;17.120;2024-02-28T04:12:18;7.49;84.31
66373;SHT30;53168;51.146;17.120;2024-02-28T04:14:54;7.49;84.31
66373;SHT30;53168;51.146;17.120;2024-02-28T04:17:38;7.48;84.40
66373;SHT30;53168;51.146;17.120;2024-02-28T04:20:15;7.46;84.40
66373;SHT30;53168;51.146;17.120;2024-02-28T04:22:50;7.46;84.48
66373;SHT30;53168;51.146;17.120;2024-02-28T04:25:25;7.45;84.52
66373;SHT30;53168;51.146;17.120;2024-02-28T04:28:02;7.46;84.57
66373;SHT30;53168;51.146;17.120;2024-02-28T04:30:38;7.46;84.58
66373;SHT30;53168;51.146;17.120;2024-02-28T04:33:15;7.47;84.59
66373;SHT30;53168;51.146;17.120;2024-02-28T04:35:50;7.48;84.60
66373;SHT30;53168;51.146;17.120;2024-02-28T04:38:25;7.49;84.61
66373;SHT30;53168;51.146;17.120;2024-02-28T04:41:02;7.47;84.60
66373;SHT30;53168;51.146;17.120;2024-02-28T04:43:52;7.48;84.61
66373;SHT30;53168;51.146;17.120;2024-02-28T04:46:27;7.50;84.66
66373;SHT30;53168;51.146;17.120;2024-02-28T04:49:03;7.51;84.69
66373;SHT30;53168;51.146;17.120;2024-02-28T04:51:41;7.53;84.70
66373;SHT30;53168;51.146;17.120;2024-02-28T04:54:18;7.53;84.70
66373;SHT30;53168;51.146;17.120;2024-02-28T04:56:54;7.53;84.73
66373;SHT30;53168;51.146;17.120;2024-02-28T04:59:58;7.55;84.78
66373;SHT30;53168;51.146;17.120;2024-02-28T05:02:33;7.55;84.80
66373;SHT30;53168;51.146;17.120;2024-02-28T05:05:10;7.55;84.80
66373;SHT30;53168;51.146;17.120;2024-02-28T05:10:40;7.51;84.90
66373;SHT30;53168;51.146;17.120;2024-02-28T05:13:17;7.48;84.95
66373;SHT30;53168;51.146;17.120;2024-02-28T05:15:54;7.47;85.00
66373;SHT30;53168;51.146;17.120;2024-02-28T05:18:30;7.46;85.00
66373;SHT30;53168;51.146;17.120;2024-02-28T05:21:05;7.47;85.00
66373;SHT30;53168;51.146;17.120;2024-02-28T05:23:41;7.47;85.00
66373;SHT30;53168;51.146;17.120;2024-02-28T05:26:19;7.47;85.00
66373;SHT30;53168;51.146;17.120;2024-02-28T05:28:58;7.48;85.00
66373;SHT30;53168;51.146;17.120;2024-02-28T05:33:12;7.47;85.05
66373;SHT30;53168;51.146;17.120;2024-02-28T05:35:45;7.47;85.08
66373;SHT30;53168;51.146;17.120;2024-02-28T05:38:20;7.45;85.10
66373;SHT30;53168;51.146;17.120;2024-02-28T05:40:55;7.44;85.14
66373;SHT30;53168;51.146;17.120;2024-02-28T05:43:28;7.44;85.13
66373;SHT30;53168;51.146;17.120;2024-02-28T05:45:59;7.41;85.14
66373;SHT30;53168;51.146;17.120;2024-02-28T05:48:32;7.41;85.18
66373;SHT30;53168;51.146;17.120;2024-02-28T05:51:04;7.42;85.20
66373;SHT30;53168;51.146;17.120;2024-02-28T05:53:38;7.39;85.19
66373;SHT30;53168;51.146;17.120;2024-02-28T05:56:25;7.39;85.21
66373;SHT30;53168;51.146;17.120;2024-02-28T05:59:20;7.41;85.24
66373;SHT30;53168;51.146;17.120;2024-02-28T06:02:08;7.43;85.27
66373;SHT30;53168;51.146;17.120;2024-02-28T06:04:42;7.44;85.26
66373;SHT30;53168;51.146;17.120;2024-02-28T06:07:21;7.45;85.25
66373;SHT30;53168;51.146;17.120;2024-02-28T06:10:07;7.45;85.30
66373;SHT30;53168;51.146;17.120;2024-02-28T06:12:41;7.44;85.33
66373;SHT30;53168;51.146;17.120;2024-02-28T06:15:18;7.45;85.38
66373;SHT30;53168;51.146;17.120;2024-02-28T06:17:57;7.46;85.34
66373;SHT30;53168;51.146;17.120;2024-02-28T06:20:34;7.47;85.38
66373;SHT30;53168;51.146;17.120;2024-02-28T06:23:12;7.46;85.39
66373;SHT30;53168;51.146;17.120;2024-02-28T06:25:56;7.49;85.40
66373;SHT30;53168;51.146;17.120;2024-02-28T06:28:27;7.51;85.40
66373;SHT30;53168;51.146;17.120;2024-02-28T06:30:58;7.52;85.39
66373;SHT30;53168;51.146;17.120;2024-02-28T06:33:32;7.51;85.40
66373;SHT30;53168;51.146;17.120;2024-02-28T06:36:06;7.50;85.40
66373;SHT30;53168;51.146;17.120;2024-02-28T06:38:40;7.51;85.41
66373;SHT30;53168;51.146;17.120;2024-02-28T06:41:11;7.50;85.44
66373;SHT30;53168;51.146;17.120;2024-02-28T06:43:41;7.50;85.50
66373;SHT30;53168;51.146;17.120;2024-02-28T06:46:15;7.54;85.50
66373;SHT30;53168;51.146;17.120;2024-02-28T07:00:53;7.73;85.30
66373;SHT30;53168;51.146;17.120;2024-02-28T07:03:27;7.74;85.30
66373;SHT30;53168;51.146;17.120;2024-02-28T07:05:58;7.76;85.30
66373;SHT30;53168;51.146;17.120;2024-02-28T07:08:29;7.78;85.30
66373;SHT30;53168;51.146;17.120;2024-02-28T07:11:02;7.77;85.29
66373;SHT30;53168;51.146;17.120;2024-02-28T07:13:32;7.76;85.25
66373;SHT30;53168;51.146;17.120;2024-02-28T07:16:03;7.76;85.25
66373;SHT30;53168;51.146;17.120;2024-02-28T07:18:35;7.79;85.29
66373;SHT30;53168;51.146;17.120;2024-02-28T07:21:06;7.82;85.30
66373;SHT30;53168;51.146;17.120;2024-02-28T07:23:40;7.85;85.30
66373;SHT30;53168;51.146;17.120;2024-02-28T07:26:15;7.88;85.28
66373;SHT30;53168;51.146;17.120;2024-02-28T07:28:56;7.92;85.26
66373;SHT30;53168;51.146;17.120;2024-02-28T07:31:28;7.97;85.26
66373;SHT30;53168;51.146;17.120;2024-02-28T07:33:58;8.02;85.25
66373;SHT30;53168;51.146;17.120;2024-02-28T07:36:29;8.07;85.21
66373;SHT30;53168;51.146;17.120;2024-02-28T07:39:00;8.11;85.16
66373;SHT30;53168;51.146;17.120;2024-02-28T07:41:31;8.17;85.15
66373;SHT30;53168;51.146;17.120;2024-02-28T07:44:01;8.22;85.11
66373;SHT30;53168;51.146;17.120;2024-02-28T07:46:32;8.23;85.09
66373;SHT30;53168;51.146;17.120;2024-02-28T07:49:03;8.21;85.07
66373;SHT30;53168;51.146;17.120;2024-02-28T07:51:34;8.23;85.08
66373;SHT30;53168;51.146;17.120;2024-02-28T07:54:05;8.26;85.07
66373;SHT30;53168;51.146;17.120;2024-02-28T07:56:36;8.30;85.00
66373;SHT30;53168;51.146;17.120;2024-02-28T07:59:07;8.30;84.92
66373;SHT30;53168;51.146;17.120;2024-02-28T08:01:38;8.30;84.90
66373;SHT30;53168;51.146;17.120;2024-02-28T08:04:10;8.32;84.89
66373;SHT30;53168;51.146;17.120;2024-02-28T08:06:41;8.36;84.88
66373;SHT30;53168;51.146;17.120;2024-02-28T08:09:13;8.39;84.81
66373;SHT30;53168;51.146;17.120;2024-02-28T08:11:45;8.42;84.83
66373;SHT30;53168;51.146;17.120;2024-02-28T08:14:36;8.45;84.81
66373;SHT30;53168;51.146;17.120;2024-02-28T08:17:07;8.47;84.79
66373;SHT30;53168;51.146;17.120;2024-02-28T08:19:38;8.49;84.76
66373;SHT30;53168;51.146;17.120;2024-02-28T08:22:10;8.48;84.72
66373;SHT30;53168;51.146;17.120;2024-02-28T08:24:45;8.46;84.66
66373;SHT30;53168;51.146;17.120;2024-02-28T08:27:47;8.45;84.70
66373;SHT30;53168;51.146;17.120;2024-02-28T08:31:10;8.46;84.68
66373;SHT30;53168;51.146;17.120;2024-02-28T08:33:56;8.47;84.70
66373;SHT30;53168;51.146;17.120;2024-02-28T08:36:29;8.53;84.70
66373;SHT30;53168;51.146;17.120;2024-02-28T08:39:26;8.55;84.60
66373;SHT30;53168;51.146;17.120;2024-02-28T08:42:14;8.57;84.60
66373;SHT30;53168;51.146;17.120;2024-02-28T08:44:45;8.59;84.59
66373;SHT30;53168;51.146;17.120;2024-02-28T08:47:17;8.59;84.56
66373;SHT30;53168;51.146;17.120;2024-02-28T08:50:02;8.57;84.51
66373;SHT30;53168;51.146;17.120;2024-02-28T08:52:33;8.54;84.50
66373;SHT30;53168;51.146;17.120;2024-02-28T08:55:07;8.52;84.50
66373;SHT30;53168;51.146;17.120;2024-02-28T08:57:43;8.51;84.51
66373;SHT30;53168;51.146;17.120;2024-02-28T09:00:15;8.49;84.50
66373;SHT30;53168;51.146;17.120;2024-02-28T09:02:47;8.49;84.50
66373;SHT30;53168;51.146;17.120;2024-02-28T09:05:17;8.49;84.59
66373;SHT30;53168;51.146;17.120;2024-02-28T09:07:48;8.53;84.54
66373;SHT30;53168;51.146;17.120;2024-02-28T09:10:21;8.55;84.50
66373;SHT30;53168;51.146;17.120;2024-02-28T09:12:53;8.55;84.49
66373;SHT30;53168;51.146;17.120;2024-02-28T09:18:03;8.57;84.40
66373;SHT30;53168;51.146;17.120;2024-02-28T09:20:38;8.62;84.39
66373;SHT30;53168;51.146;17.120;2024-02-28T09:23:13;8.64;84.32
66373;SHT30;53168;51.146;17.120;2024-02-28T09:25:48;8.65;84.28
66373;SHT30;53168;51.146;17.120;2024-02-28T09:28:23;8.63;84.29
66373;SHT30;53168;51.146;17.120;2024-02-28T09:32:05;8.59;84.20
66373;SHT30;53168;51.146;17.120;2024-02-28T09:34:40;8.55;84.28
66373;SHT30;53168;51.146;17.120;2024-02-28T09:37:19;8.55;84.36
66373;SHT30;53168;51.146;17.120;2024-02-28T09:40:11;8.53;84.40
66373;SHT30;53168;51.146;17.120;2024-02-28T09:43:02;8.49;84.31
66373;SHT30;53168;51.146;17.120;2024-02-28T09:45:38;8.46;84.34
66373;SHT30;53168;51.146;17.120;2024-02-28T09:48:24;8.42;84.34
66373;SHT30;53168;51.146;17.120;2024-02-28T09:51:06;8.37;84.32
66373;SHT30;53168;51.146;17.120;2024-02-28T09:53:44;8.34;84.40
66373;SHT30;53168;51.146;17.120;2024-02-28T09:56:28;8.28;84.40
66373;SHT30;53168;51.146;17.120;2024-02-28T09:59:06;8.26;84.45
66373;SHT30;53168;51.146;17.120;2024-02-28T10:01:57;8.22;84.46
66373;SHT30;53168;51.146;17.120;2024-02-28T10:04:43;8.18;84.55
66373;SHT30;53168;51.146;17.120;2024-02-28T10:07:32;8.16;84.51
66373;SHT30;53168;51.146;17.120;2024-02-28T10:10:15;8.14;84.56
66373;SHT30;53168;51.146;17.120;2024-02-28T10:12:54;8.14;84.60
66373;SHT30;53168;51.146;17.120;2024-02-28T10:15:34;8.13;84.60
66373;SHT30;53168;51.146;17.120;2024-02-28T10:18:11;8.13;84.62
66373;SHT30;53168;51.146;17.120;2024-02-28T10:20:52;8.13;84.66
66373;SHT30;53168;51.146;17.120;2024-02-28T10:23:32;8.10;84.60
66373;SHT30;53168;51.146;17.120;2024-02-28T10:26:14;8.06;84.67
66373;SHT30;53168;51.146;17.120;2024-02-28T10:28:56;8.07;84.73
66373;SHT30;53168;51.146;17.120;2024-02-28T10:31:44;8.09;84.77
66373;SHT30;53168;51.146;17.120;2024-02-28T10:34:32;8.09;84.81
66373;SHT30;53168;51.146;17.120;2024-02-28T10:37:14;8.06;84.90
66373;SHT30;53168;51.146;17.120;2024-02-28T10:39:53;8.03;84.90
66373;SHT30;53168;51.146;17.120;2024-02-28T10:42:31;8.02;84.98
66373;SHT30;53168;51.146;17.120;2024-02-28T10:45:08;8.01;85.00
66373;SHT30;53168;51.146;17.120;2024-02-28T10:48:02;8.00;84.92
66373;SHT30;53168;51.146;17.120;2024-02-28T10:50:40;7.99;84.91
66373;SHT30;53168;51.146;17.120;2024-02-28T10:53:16;7.95;84.90
66373;SHT30;53168;51.146;17.120;2024-02-28T10:56:03;7.90;84.90
66373;SHT30;53168;51.146;17.120;2024-02-28T10:58:51;7.87;84.94
66373;SHT30;53168;51.146;17.120;2024-02-28T11:04:31;7.76;84.90
66373;SHT30;53168;51.146;17.120;2024-02-28T11:07:07;7.75;84.94
66373;SHT30;53168;51.146;17.120;2024-02-28T11:09:42;7.76;85.00
66373;SHT30;53168;51.146;17.120;2024-02-28T11:12:28;7.75;85.01
66373;SHT30;53168;51.146;17.120;2024-02-28T11:15:05;7.75;85.00
66373;SHT30;53168;51.146;17.120;2024-02-28T11:17:50;7.76;85.01
66373;SHT30;53168;51.146;17.120;2024-02-28T11:20:33;7.74;84.99
66373;SHT30;53168;51.146;17.120;2024-02-28T11:23:09;7.69;84.94
66373;SHT30;53168;51.146;17.120;2024-02-28T11:25:45;7.64;84.89
66373;SHT30;53168;51.146;17.120;2024-02-28T11:28:20;7.60;84.90
66373;SHT30;53168;51.146;17.120;2024-02-28T11:30:55;7.55;84.83
66373;SHT30;53168;51.146;17.120;2024-02-28T11:33:31;7.53;84.88
66373;SHT30;53168;51.146;17.120;2024-02-28T11:36:07;7.53;84.90
66373;SHT30;53168;51.146;17.120;2024-02-28T11:38:44;7.50;84.83
66373;SHT30;53168;51.146;17.120;2024-02-28T11:41:26;7.47;84.82
66373;SHT30;53168;51.146;17.120;2024-02-28T11:44:02;7.44;84.82
66373;SHT30;53168;51.146;17.120;2024-02-28T11:46:37;7.42;84.80
66373;SHT30;53168;51.146;17.120;2024-02-28T11:49:15;7.42;84.83
66373;SHT30;53168;51.146;17.120;2024-02-28T11:51:50;7.44;84.83
66373;SHT30;53168;51.146;17.120;2024-02-28T11:54:25;7.45;84.80
66373;SHT30;53168;51.146;17.120;2024-02-28T11:57:00;7.45;84.80
66373;SHT30;53168;51.146;17.120;2024-02-28T11:59:35;7.45;84.81
66373;SHT30;53168;51.146;17.120;2024-02-28T12:02:16;7.45;84.90
66373;SHT30;53168;51.146;17.120;2024-02-28T12:04:59;7.50;84.96
66373;SHT30;53168;51.146;17.120;2024-02-28T12:07:38;7.54;84.97
66373;SHT30;53168;51.146;17.120;2024-02-28T12:10:17;7.55;84.90
66373;SHT30;53168;51.146;17.120;2024-02-28T12:12:52;7.55;84.87
66373;SHT30;53168;51.146;17.120;2024-02-28T12:15:35;7.53;84.81
66373;SHT30;53168;51.146;17.120;2024-02-28T12:18:13;7.49;84.87
66373;SHT30;53168;51.146;17.120;2024-02-28T12:20:49;7.48;84.90
66373;SHT30;53168;51.146;17.120;2024-02-28T12:23:24;7.47;84.94
66373;SHT30;53168;51.146;17.120;2024-02-28T12:25:59;7.46;85.00
66373;SHT30;53168;51.146;17.120;2024-02-28T12:28:35;7.46;85.00
66373;SHT30;53168;51.146;17.120;2024-02-28T12:31:11;7.48;85.04
66373;SHT30;53168;51.146;17.120;2024-02-28T12:33:46;7.49;85.08
66373;SHT30;53168;51.146;17.120;2024-02-28T12:36:21;7.48;85.10
66373;SHT30;53168;51.146;17.120;2024-02-28T12:38:56;7.46;85.09
66373;SHT30;53168;51.146;17.120;2024-02-28T12:41:34;7.45;85.12
66373;SHT30;53168;51.146;17.120;2024-02-28T12:44:09;7.42;85.20
66373;SHT30;53168;51.146;17.120;2024-02-28T12:46:44;7.41;85.20
66373;SHT30;53168;51.146;17.120;2024-02-28T12:49:19;7.39;85.27
66373;SHT30;53168;51.146;17.120;2024-02-28T12:51:53;7.37;85.21
66373;SHT30;53168;51.146;17.120;2024-02-28T12:54:28;7.36;85.19
66373;SHT30;53168;51.146;17.120;2024-02-28T12:57:04;7.33;85.11
66373;SHT30;53168;51.146;17.120;2024-02-28T12:59:42;7.31;85.09
66373;SHT30;53168;51.146;17.120;2024-02-28T13:02:22;7.29;85.01
66373;SHT30;53168;51.146;17.120;2024-02-28T13:04:56;7.24;84.92
66373;SHT30;53168;51.146;17.120;2024-02-28T13:07:31;7.20;84.93
66373;SHT30;53168;51.146;17.120;2024-02-28T13:10:10;7.19;85.01
66373;SHT30;53168;51.146;17.120;2024-02-28T13:12:44;7.16;85.05
66373;SHT30;53168;51.146;17.120;2024-02-28T13:15:20;7.15;85.10
66373;SHT30;53168;51.146;17.120;2024-02-28T13:17:56;7.13;85.10
66373;SHT30;53168;51.146;17.120;2024-02-28T13:20:38;7.09;85.10
66373;SHT30;53168;51.146;17.120;2024-02-28T13:23:16;7.08;85.18
66373;SHT30;53168;51.146;17.120;2024-02-28T13:25:50;7.09;85.20
66373;SHT30;53168;51.146;17.120;2024-02-28T13:28:25;7.10;85.23
66373;SHT30;53168;51.146;17.120;2024-02-28T13:31:02;7.11;85.20
66373;SHT30;53168;51.146;17.120;2024-02-28T13:33:38;7.10;85.20
66373;SHT30;53168;51.146;17.120;2024-02-28T13:36:14;7.12;85.23
66373;SHT30;53168;51.146;17.120;2024-02-28T13:38:49;7.09;85.20
66373;SHT30;53168;51.146;17.120;2024-02-28T13:41:23;7.05;85.18
66373;SHT30;53168;51.146;17.120;2024-02-28T13:43:58;7.02;85.19
66373;SHT30;53168;51.146;17.120;2024-02-28T13:46:32;7.00;85.20
66373;SHT30;53168;51.146;17.120;2024-02-28T13:49:07;6.99;85.20
66373;SHT30;53168;51.146;17.120;2024-02-28T13:51:44;6.97;85.27
66373;SHT30;53168;51.146;17.120;2024-02-28T13:54:27;6.95;85.27
66373;SHT30;53168;51.146;17.120;2024-02-28T13:57:04;6.92;85.30
66373;SHT30;53168;51.146;17.120;2024-02-28T14:03:01;6.88;85.25
66373;SHT30;53168;51.146;17.120;2024-02-28T14:05:36;6.86;85.27
66373;SHT30;53168;51.146;17.120;2024-02-28T14:08:11;6.86;85.29
66373;SHT30;53168;51.146;17.120;2024-02-28T14:10:46;6.85;85.28
66373;SHT30;53168;51.146;17.120;2024-02-28T14:13:20;6.83;85.27
66373;SHT30;53168;51.146;17.120;2024-02-28T14:15:55;6.82;85.29
66373;SHT30;53168;51.146;17.120;2024-02-28T14:18:30;6.78;85.25
66373;SHT30;53168;51.146;17.120;2024-02-28T14:21:07;6.76;85.30
66373;SHT30;53168;51.146;17.120;2024-02-28T14:23:42;6.73;85.31
66373;SHT30;53168;51.146;17.120;2024-02-28T14:26:16;6.72;85.33
66373;SHT30;53168;51.146;17.120;2024-02-28T14:28:51;6.71;85.38
66373;SHT30;53168;51.146;17.120;2024-02-28T14:31:26;6.69;85.40
66373;SHT30;53168;51.146;17.120;2024-02-28T14:34:01;6.68;85.39
66373;SHT30;53168;51.146;17.120;2024-02-28T14:36:41;6.65;85.39
66373;SHT30;53168;51.146;17.120;2024-02-28T14:39:16;6.65;85.40
66373;SHT30;53168;51.146;17.120;2024-02-28T14:41:51;6.64;85.40
66373;SHT30;53168;51.146;17.120;2024-02-28T14:44:26;6.65;85.43
66373;SHT30;53168;51.146;17.120;2024-02-28T14:47:00;6.65;85.45
66373;SHT30;53168;51.146;17.120;2024-02-28T14:49:36;6.63;85.45
66373;SHT30;53168;51.146;17.120;2024-02-28T14:52:11;6.63;85.50
66373;SHT30;53168;51.146;17.120;2024-02-28T14:54:46;6.59;85.50
66373;SHT30;53168;51.146;17.120;2024-02-28T14:57:20;6.57;85.59
66373;SHT30;53168;51.146;17.120;2024-02-28T14:59:55;6.55;85.60
66373;SHT30;53168;51.146;17.120;2024-02-28T15:02:30;6.52;85.66
66373;SHT30;53168;51.146;17.120;2024-02-28T15:05:06;6.52;85.70
66373;SHT30;53168;51.146;17.120;2024-02-28T15:07:42;6.54;85.73
66373;SHT30;53168;51.146;17.120;2024-02-28T15:10:17;6.53;85.71
66373;SHT30;53168;51.146;17.120;2024-02-28T15:12:51;6.55;85.75
66373;SHT30;53168;51.146;17.120;2024-02-28T15:15:26;6.56;85.72
66373;SHT30;53168;51.146;17.120;2024-02-28T15:18:01;6.58;85.73
66373;SHT30;53168;51.146;17.120;2024-02-28T15:20:35;6.58;85.70
66373;SHT30;53168;51.146;17.120;2024-02-28T15:23:11;6.58;85.70
66373;SHT30;53168;51.146;17.120;2024-02-28T15:25:46;6.56;85.70
66373;SHT30;53168;51.146;17.120;2024-02-28T15:28:25;6.56;85.74
66373;SHT30;53168;51.146;17.120;2024-02-28T15:31:02;6.54;85.80
66373;SHT30;53168;51.146;17.120;2024-02-28T15:33:44;6.53;85.80
66373;SHT30;53168;51.146;17.120;2024-02-28T15:36:44;6.54;85.81
66373;SHT30;53168;51.146;17.120;2024-02-28T15:39:20;6.55;85.81
66373;SHT30;53168;51.146;17.120;2024-02-28T15:41:55;6.53;85.80
66373;SHT30;53168;51.146;17.120;2024-02-28T15:44:33;6.49;85.79
66373;SHT30;53168;51.146;17.120;2024-02-28T15:47:11;6.49;85.80
66373;SHT30;53168;51.146;17.120;2024-02-28T15:49:46;6.49;85.84
66373;SHT30;53168;51.146;17.120;2024-02-28T15:52:20;6.48;85.83
66373;SHT30;53168;51.146;17.120;2024-02-28T15:54:55;6.47;85.85
66373;SHT30;53168;51.146;17.120;2024-02-28T15:57:29;6.44;85.88
66373;SHT30;53168;51.146;17.120;2024-02-28T16:00:06;6.44;85.90
66373;SHT30;53168;51.146;17.120;2024-02-28T16:02:45;6.42;85.92
66373;SHT30;53168;51.146;17.120;2024-02-28T16:05:20;6.38;85.91
66373;SHT30;53168;51.146;17.120;2024-02-28T16:07:57;6.37;85.99
66373;SHT30;53168;51.146;17.120;2024-02-28T16:10:37;6.35;85.95
66373;SHT30;53168;51.146;17.120;2024-02-28T16:13:12;6.31;85.95
66373;SHT30;53168;51.146;17.120;2024-02-28T16:15:47;6.28;85.98
66373;SHT30;53168;51.146;17.120;2024-02-28T16:18:21;6.25;86.00
66373;SHT30;53168;51.146;17.120;2024-02-28T16:21:00;6.22;86.00
66373;SHT30;53168;51.146;17.120;2024-02-28T16:23:40;6.19;86.04
66373;SHT30;53168;51.146;17.120;2024-02-28T16:26:15;6.19;86.10
66373;SHT30;53168;51.146;17.120;2024-02-28T16:28:49;6.19;86.10
66373;SHT30;53168;51.146;17.120;2024-02-28T16:31:24;6.19;86.10
66373;SHT30;53168;51.146;17.120;2024-02-28T16:33:58;6.18;86.08
66373;SHT30;53168;51.146;17.120;2024-02-28T16:36:33;6.18;86.09
66373;SHT30;53168;51.146;17.120;2024-02-28T16:39:08;6.15;86.08
66373;SHT30;53168;51.146;17.120;2024-02-28T16:41:45;6.13;86.10
66373;SHT30;53168;51.146;17.120;2024-02-28T16:44:20;6.11;86.11
66373;SHT30;53168;51.146;17.120;2024-02-28T16:46:55;6.06;86.10
66373;SHT30;53168;51.146;17.120;2024-02-28T16:49:30;6.02;86.10
66373;SHT30;53168;51.146;17.120;2024-02-28T16:52:05;5.99;86.17
66373;SHT30;53168;51.146;17.120;2024-02-28T16:54:44;6.00;86.20
66373;SHT30;53168;51.146;17.120;2024-02-28T16:57:19;6.00;86.19
66373;SHT30;53168;51.146;17.120;2024-02-28T16:59:53;5.99;86.14
66373;SHT30;53168;51.146;17.120;2024-02-28T17:02:28;5.97;86.11
66373;SHT30;53168;51.146;17.120;2024-02-28T17:05:03;5.95;86.10
66373;SHT30;53168;51.146;17.120;2024-02-28T17:07:39;5.94;86.09
66373;SHT30;53168;51.146;17.120;2024-02-28T17:10:17;5.93;86.04
66373;SHT30;53168;51.146;17.120;2024-02-28T17:12:52;5.93;86.01
66373;SHT30;53168;51.146;17.120;2024-02-28T17:15:26;5.90;85.98
66373;SHT30;53168;51.146;17.120;2024-02-28T17:18:01;5.88;85.90
66373;SHT30;53168;51.146;17.120;2024-02-28T17:20:36;5.87;85.90
66373;SHT30;53168;51.146;17.120;2024-02-28T17:23:11;5.86;85.88
66373;SHT30;53168;51.146;17.120;2024-02-28T17:25:46;5.85;85.90
66373;SHT30;53168;51.146;17.120;2024-02-28T17:28:21;5.84;85.89